createdAt,value
2023-07-07T00:00:24.197Z,23.45
2023-07-07T00:02:25.898Z,23.43
2023-07-07T00:04:28.924Z,23.35
2023-07-07T00:06:30.734Z,23.33
2023-07-07T00:08:32.561Z,23.35
2023-07-07T00:10:35.655Z,23.33
2023-07-07T00:12:37.428Z,23.32
2023-07-07T00:14:39.115Z,23.28
2023-07-07T00:16:40.841Z,23.16
2023-07-07T00:18:42.564Z,23.11
2023-07-07T00:20:44.389Z,23.06
2023-07-07T00:22:46.052Z,22.92
2023-07-07T00:24:47.640Z,22.96
2023-07-07T00:26:50.763Z,22.95
2023-07-07T00:28:52.757Z,22.91
2023-07-07T00:30:54.450Z,22.90
2023-07-07T00:32:56.227Z,22.93
2023-07-07T00:34:58.097Z,22.91
2023-07-07T00:36:59.772Z,22.90
2023-07-07T00:39:01.424Z,22.88
2023-07-07T00:41:04.875Z,22.90
2023-07-07T00:43:11.611Z,22.89
2023-07-07T00:45:16.496Z,22.85
2023-07-07T00:47:18.695Z,22.79
2023-07-07T00:49:22.560Z,22.76
2023-07-07T00:51:28.169Z,22.72
2023-07-07T00:53:31.218Z,22.70
2023-07-07T00:55:37.454Z,22.70
2023-07-07T00:57:41.930Z,22.71
2023-07-07T00:59:47.517Z,22.74
2023-07-07T01:01:55.222Z,22.73
2023-07-07T01:04:00.769Z,22.71
2023-07-07T01:06:03.507Z,22.72
2023-07-07T01:08:06.357Z,22.72
2023-07-07T01:10:08.520Z,22.68
2023-07-07T01:12:12.033Z,22.67
2023-07-07T01:14:18.322Z,22.66
2023-07-07T01:16:31.074Z,22.69
2023-07-07T01:18:45.090Z,22.72
2023-07-07T01:20:52.914Z,22.71
2023-07-07T01:23:36.028Z,22.67
2023-07-07T01:25:58.062Z,22.55
2023-07-07T01:28:25.432Z,22.48
2023-07-07T01:30:36.527Z,22.46
2023-07-07T01:32:39.176Z,22.48
2023-07-07T01:34:41.159Z,22.52
2023-07-07T01:36:42.870Z,22.53
2023-07-07T01:38:47.097Z,22.59
2023-07-07T01:40:53.710Z,22.63
2023-07-07T01:43:01.058Z,22.59
2023-07-07T01:45:11.563Z,22.62
2023-07-07T01:47:17.936Z,22.62
2023-07-07T01:49:23.888Z,22.62
2023-07-07T01:51:32.549Z,22.58
2023-07-07T01:53:36.304Z,22.58
2023-07-07T01:55:42.767Z,22.61
2023-07-07T01:57:47.107Z,22.61
2023-07-07T01:59:48.877Z,22.60
2023-07-07T02:01:51.317Z,22.53
2023-07-07T02:03:54.329Z,22.43
2023-07-07T02:05:55.998Z,22.35
2023-07-07T02:07:57.691Z,22.28
2023-07-07T02:09:59.384Z,22.22
2023-07-07T02:12:01.402Z,22.28
2023-07-07T02:14:03.111Z,22.29
2023-07-07T02:16:05.290Z,22.30
2023-07-07T02:18:07.357Z,22.34
2023-07-07T02:20:11.617Z,22.37
2023-07-07T02:22:13.534Z,22.29
2023-07-07T02:24:15.180Z,22.20
2023-07-07T02:26:17.302Z,22.19
2023-07-07T02:28:18.942Z,22.19
2023-07-07T02:30:20.542Z,22.07
2023-07-07T02:32:22.237Z,21.99
2023-07-07T02:34:23.918Z,21.92
2023-07-07T02:36:27.079Z,21.86
2023-07-07T02:38:29.755Z,21.80
2023-07-07T02:40:31.470Z,21.75
2023-07-07T02:42:33.150Z,21.75
2023-07-07T02:44:34.866Z,21.72
2023-07-07T02:46:36.555Z,21.61
2023-07-07T02:48:38.786Z,21.62
2023-07-07T02:50:40.599Z,21.64
2023-07-07T02:52:43.629Z,21.63
2023-07-07T02:54:45.258Z,21.63
2023-07-07T02:56:46.921Z,21.58
2023-07-07T02:58:48.564Z,21.61
2023-07-07T03:00:50.321Z,21.53
2023-07-07T03:02:52.152Z,21.50
2023-07-07T03:04:53.829Z,21.52
2023-07-07T03:06:55.410Z,21.54
2023-07-07T03:08:58.422Z,21.54
2023-07-07T03:11:05.041Z,21.51
2023-07-07T03:13:07.356Z,21.46
2023-07-07T03:15:09.621Z,21.50
2023-07-07T03:17:11.303Z,21.51
2023-07-07T03:19:13.805Z,21.48
2023-07-07T03:21:17.653Z,21.43
2023-07-07T03:23:19.427Z,21.37
2023-07-07T03:25:22.390Z,21.37
2023-07-07T03:27:24.013Z,21.42
2023-07-07T03:29:25.708Z,21.49
2023-07-07T03:31:29.465Z,21.55
2023-07-07T03:33:31.109Z,21.55
2023-07-07T03:35:32.752Z,21.51
2023-07-07T03:37:34.354Z,21.47
2023-07-07T03:39:36.011Z,21.43
2023-07-07T03:41:39.053Z,21.40
2023-07-07T03:43:40.685Z,21.37
2023-07-07T03:45:42.325Z,21.40
2023-07-07T03:47:44.597Z,21.41
2023-07-07T03:49:47.732Z,21.36
2023-07-07T03:51:49.513Z,21.41
2023-07-07T03:53:51.844Z,21.44
2023-07-07T03:55:53.601Z,21.46
2023-07-07T03:57:57.040Z,21.48
2023-07-07T03:59:58.597Z,21.43
2023-07-07T04:02:00.172Z,21.42
2023-07-07T04:04:02.136Z,21.42
2023-07-07T04:06:04.422Z,21.41
2023-07-07T04:08:06.418Z,21.43
2023-07-07T04:10:08.831Z,21.41
2023-07-07T04:12:10.903Z,21.45
2023-07-07T04:14:13.884Z,21.45
2023-07-07T04:16:18.105Z,21.46
2023-07-07T04:18:19.710Z,21.52
2023-07-07T04:20:21.310Z,21.55
2023-07-07T04:22:23.029Z,21.58
2023-07-07T04:24:24.624Z,21.88
2023-07-07T04:26:28.830Z,22.27
2023-07-07T04:28:30.858Z,22.63
2023-07-07T04:30:34.013Z,22.96
2023-07-07T04:32:35.754Z,23.23
2023-07-07T04:34:37.438Z,23.41
2023-07-07T04:36:39.040Z,23.50
2023-07-07T04:38:40.641Z,23.61
2023-07-07T04:40:42.279Z,23.56
2023-07-07T04:42:43.853Z,23.54
2023-07-07T04:44:45.681Z,23.35
2023-07-07T04:46:48.782Z,23.18
2023-07-07T04:48:50.569Z,23.35
2023-07-07T04:50:52.211Z,23.52
2023-07-07T04:52:53.876Z,23.68
2023-07-07T04:54:55.465Z,23.65
2023-07-07T04:56:57.071Z,23.50
2023-07-07T04:58:58.719Z,23.51
2023-07-07T05:01:07.821Z,23.54
2023-07-07T05:03:10.775Z,23.69
2023-07-07T05:05:12.385Z,23.78
2023-07-07T05:07:14.002Z,23.76
2023-07-07T05:09:15.758Z,23.70
2023-07-07T05:11:19.498Z,23.82
2023-07-07T05:13:21.233Z,23.96
2023-07-07T05:15:24.635Z,24.09
2023-07-07T05:17:26.456Z,24.14
2023-07-07T05:19:29.493Z,24.19
2023-07-07T05:21:31.107Z,24.13
2023-07-07T05:23:32.908Z,24.13
2023-07-07T05:25:34.486Z,23.99
2023-07-07T05:27:36.167Z,23.99
2023-07-07T05:29:37.795Z,23.93
2023-07-07T05:31:39.386Z,23.86
2023-07-07T05:33:41.163Z,23.95
2023-07-07T05:35:51.260Z,24.00
2023-07-07T05:37:52.853Z,23.97
2023-07-07T05:39:54.493Z,23.87
2023-07-07T05:41:56.351Z,23.82
2023-07-07T05:43:57.944Z,23.75
2023-07-07T05:46:02.670Z,23.73
2023-07-07T05:48:06.006Z,23.84
2023-07-07T05:50:09.895Z,24.02
2023-07-07T05:52:12.939Z,24.02
2023-07-07T05:54:14.609Z,24.00
2023-07-07T05:56:19.795Z,24.00
2023-07-07T05:58:21.447Z,23.98
2023-07-07T06:00:23.453Z,23.92
2023-07-07T06:02:25.213Z,23.91
2023-07-07T06:04:26.839Z,23.90
2023-07-07T06:06:28.461Z,23.80
2023-07-07T06:08:31.461Z,23.79
2023-07-07T06:10:33.113Z,23.76
2023-07-07T06:12:34.891Z,23.80
2023-07-07T06:14:36.686Z,23.85
2023-07-07T06:16:38.431Z,23.78
2023-07-07T06:18:40.082Z,23.69
2023-07-07T06:20:41.880Z,23.58
2023-07-07T06:22:45.880Z,23.66
2023-07-07T06:24:48.960Z,23.65
2023-07-07T06:26:50.589Z,23.63
2023-07-07T06:28:52.208Z,23.57
2023-07-07T06:30:54.398Z,23.55
2023-07-07T06:32:56.367Z,23.54
2023-07-07T06:34:58.222Z,23.54
2023-07-07T06:36:59.866Z,23.51
2023-07-07T06:39:01.542Z,23.56
2023-07-07T06:41:04.651Z,23.57
2023-07-07T06:43:08.968Z,23.53
2023-07-07T06:45:11.166Z,23.48
2023-07-07T06:47:14.923Z,23.46
2023-07-07T06:49:16.791Z,23.52
2023-07-07T06:51:18.551Z,23.60
2023-07-07T06:53:20.213Z,23.57
2023-07-07T06:55:22.212Z,23.57
2023-07-07T06:57:25.293Z,23.64
2023-07-07T06:59:27.133Z,24.01
2023-07-07T07:01:28.834Z,24.03
2023-07-07T07:03:30.961Z,24.04
2023-07-07T07:05:32.762Z,24.11
2023-07-07T07:07:34.878Z,24.21
2023-07-07T07:09:36.948Z,24.45
2023-07-07T07:11:38.631Z,24.47
2023-07-07T07:13:41.714Z,24.53
2023-07-07T07:15:43.424Z,24.68
2023-07-07T07:17:45.126Z,24.93
2023-07-07T07:19:50.645Z,25.22
2023-07-07T07:21:54.730Z,25.32
2023-07-07T07:23:56.464Z,25.47
2023-07-07T07:25:58.255Z,25.75
2023-07-07T07:28:00.114Z,25.93
2023-07-07T07:30:03.540Z,25.80
2023-07-07T07:32:06.151Z,25.76
2023-07-07T07:34:25.563Z,25.75
2023-07-07T07:36:27.348Z,25.84
2023-07-07T07:38:29.062Z,25.84
2023-07-07T07:40:31.134Z,25.93
2023-07-07T07:42:32.875Z,25.93
2023-07-07T07:44:34.536Z,26.05
2023-07-07T07:46:37.975Z,26.07
2023-07-07T07:48:40.119Z,25.99
2023-07-07T07:50:42.025Z,25.95
2023-07-07T07:52:44.020Z,25.96
2023-07-07T07:54:46.060Z,26.05
2023-07-07T07:56:48.029Z,26.16
2023-07-07T07:58:49.780Z,26.15
2023-07-07T08:00:51.870Z,26.09
2023-07-07T08:02:55.093Z,26.14
2023-07-07T08:04:56.871Z,26.15
2023-07-07T08:06:58.804Z,26.13
2023-07-07T08:09:00.943Z,26.20
2023-07-07T08:11:13.894Z,26.17
2023-07-07T08:13:24.758Z,26.27
2023-07-07T08:15:33.514Z,26.29
2023-07-07T08:17:35.389Z,26.29
2023-07-07T08:19:40.509Z,26.49
2023-07-07T08:21:42.256Z,26.60
2023-07-07T08:23:43.921Z,26.59
2023-07-07T08:25:45.650Z,26.63
2023-07-07T08:29:52.082Z,26.58
2023-07-07T08:31:53.982Z,26.62
2023-07-07T08:34:00.535Z,26.70
2023-07-07T08:36:06.017Z,26.59
2023-07-07T08:38:10.087Z,26.57
2023-07-07T08:40:18.996Z,26.58
2023-07-07T08:42:25.260Z,26.64
2023-07-07T08:44:29.497Z,26.64
2023-07-07T08:46:43.805Z,26.64
2023-07-07T08:48:50.640Z,26.66
2023-07-07T08:50:57.427Z,26.72
2023-07-07T08:53:12.413Z,26.75
2023-07-07T08:55:37.788Z,26.83
2023-07-07T08:57:50.264Z,26.84
2023-07-07T09:00:00.294Z,26.82
2023-07-07T09:02:15.157Z,26.84
2023-07-07T09:04:41.844Z,26.92
2023-07-07T09:06:55.492Z,26.94
2023-07-07T09:09:11.908Z,27.01
2023-07-07T09:11:21.660Z,27.10
2023-07-07T09:13:28.117Z,27.23
2023-07-07T09:15:39.359Z,27.31
2023-07-07T09:17:46.248Z,27.39
2023-07-07T09:19:49.407Z,27.42
2023-07-07T09:21:56.605Z,27.35
2023-07-07T09:24:07.210Z,27.40
2023-07-07T09:26:16.990Z,27.47
2023-07-07T09:28:20.665Z,27.52
2023-07-07T09:30:30.020Z,27.62
2023-07-07T09:32:32.051Z,27.59
2023-07-07T09:34:34.049Z,27.58
2023-07-07T09:36:41.107Z,27.60
2023-07-07T09:38:53.015Z,27.46
2023-07-07T09:41:08.695Z,27.42
2023-07-07T09:43:21.513Z,27.38
2023-07-07T09:45:36.319Z,27.38
2023-07-07T09:47:45.293Z,27.43
2023-07-07T09:49:53.152Z,27.41
2023-07-07T09:52:03.868Z,27.43
2023-07-07T09:54:09.462Z,27.37
2023-07-07T09:56:15.990Z,27.48
2023-07-07T09:58:22.497Z,27.55
2023-07-07T10:00:39.468Z,27.58
2023-07-07T10:02:46.644Z,27.62
2023-07-07T10:04:53.402Z,27.67
2023-07-07T10:06:58.068Z,27.68
2023-07-07T10:09:00.935Z,27.71
2023-07-07T10:13:24.476Z,27.89
2023-07-07T10:15:48.973Z,27.98
2023-07-07T10:17:58.259Z,27.96
2023-07-07T10:20:02.831Z,28.02
2023-07-07T10:22:06.136Z,28.08
2023-07-07T10:24:11.281Z,28.16
2023-07-07T10:26:13.133Z,28.18
2023-07-07T10:28:18.244Z,28.21
2023-07-07T10:30:25.007Z,28.24
2023-07-07T10:32:28.347Z,28.25
2023-07-07T10:34:34.647Z,28.32
2023-07-07T10:36:39.160Z,28.33
2023-07-07T10:38:54.758Z,28.36
2023-07-07T10:40:58.290Z,28.43
2023-07-07T10:43:00.343Z,28.48
2023-07-07T10:45:04.285Z,28.51
2023-07-07T10:47:21.589Z,28.55
2023-07-07T10:49:26.309Z,28.62
2023-07-07T10:51:36.726Z,28.66
2023-07-07T10:53:50.312Z,28.66
2023-07-07T10:56:08.608Z,28.71
2023-07-07T10:58:24.466Z,28.79
2023-07-07T11:00:41.464Z,28.87
2023-07-07T11:03:02.459Z,28.89
2023-07-07T11:05:21.732Z,28.92
2023-07-07T11:07:33.211Z,28.90
2023-07-07T11:09:54.858Z,28.93
2023-07-07T11:12:02.702Z,28.99
2023-07-07T11:14:21.377Z,29.02
2023-07-07T11:16:36.696Z,29.07
2023-07-07T11:18:59.442Z,29.09
2023-07-07T11:21:13.227Z,29.18
2023-07-07T11:23:37.588Z,29.11
2023-07-07T11:25:46.589Z,29.15
2023-07-07T11:28:04.178Z,29.24
2023-07-07T11:30:15.989Z,29.33
2023-07-07T11:32:30.124Z,29.41
2023-07-07T11:34:46.049Z,29.50
2023-07-07T11:37:00.087Z,29.54
2023-07-07T11:39:11.740Z,29.60
2023-07-07T11:41:21.897Z,29.66
2023-07-07T11:43:37.032Z,29.71
2023-07-07T11:45:54.109Z,29.66
2023-07-07T11:48:20.713Z,29.68
2023-07-07T11:50:39.630Z,29.75
2023-07-07T11:52:57.463Z,30.00
2023-07-07T11:55:15.085Z,30.17
2023-07-07T11:57:31.186Z,30.26
2023-07-07T11:59:55.011Z,30.29
2023-07-07T12:01:59.051Z,30.40
2023-07-07T12:04:11.320Z,30.41
2023-07-07T12:06:23.124Z,30.31
2023-07-07T12:08:37.895Z,30.31
2023-07-07T12:10:45.518Z,30.27
2023-07-07T12:12:57.596Z,30.27
2023-07-07T12:15:04.573Z,30.37
2023-07-07T12:17:13.679Z,30.42
2023-07-07T12:19:24.486Z,30.48
2023-07-07T12:21:30.097Z,30.52
2023-07-07T12:23:36.979Z,30.58
2023-07-07T12:25:38.646Z,30.64
2023-07-07T12:27:44.492Z,30.72
2023-07-07T12:29:48.459Z,30.81
2023-07-07T12:31:50.124Z,30.89
2023-07-07T12:33:51.778Z,31.08
2023-07-07T12:35:57.397Z,31.32
2023-07-07T12:38:16.024Z,31.55
2023-07-07T12:40:19.943Z,31.85
2023-07-07T12:42:23.369Z,32.15
2023-07-07T12:44:27.000Z,32.34
2023-07-07T12:46:32.291Z,32.51
2023-07-07T12:48:34.181Z,32.67
2023-07-07T12:50:38.979Z,32.86
2023-07-07T12:52:45.174Z,33.12
2023-07-07T12:54:53.309Z,33.44
2023-07-07T12:57:04.165Z,33.73
2023-07-07T12:59:34.902Z,34.24
2023-07-07T13:01:38.193Z,34.50
2023-07-07T13:03:45.006Z,34.68
2023-07-07T13:05:53.621Z,34.97
2023-07-07T13:08:01.709Z,35.31
2023-07-07T13:10:06.665Z,35.65
2023-07-07T13:12:44.939Z,35.88
2023-07-07T13:14:46.803Z,35.78
2023-07-07T13:16:51.778Z,35.85
2023-07-07T13:18:53.831Z,36.09
2023-07-07T13:20:57.644Z,36.39
2023-07-07T13:23:05.806Z,36.39
2023-07-07T13:25:17.994Z,36.59
2023-07-07T13:27:23.714Z,36.62
2023-07-07T13:29:28.122Z,36.68
2023-07-07T13:31:29.872Z,36.64
2023-07-07T13:33:31.987Z,36.74
2023-07-07T13:35:36.836Z,36.92
2023-07-07T13:37:40.925Z,36.94
2023-07-07T13:39:43.142Z,36.98
2023-07-07T13:41:45.871Z,36.81
2023-07-07T13:43:49.652Z,36.58
2023-07-07T13:45:59.780Z,36.72
2023-07-07T13:48:09.748Z,36.80
2023-07-07T13:50:15.660Z,36.96
2023-07-07T13:52:21.482Z,36.99
2023-07-07T13:54:25.122Z,36.93
2023-07-07T13:56:28.280Z,36.87
2023-07-07T13:58:30.416Z,36.85
2023-07-07T14:00:35.842Z,36.95
2023-07-07T14:02:43.287Z,36.97
2023-07-07T14:04:48.633Z,37.03
2023-07-07T14:06:52.264Z,37.08
2023-07-07T14:08:56.725Z,36.97
2023-07-07T14:11:04.997Z,37.03
2023-07-07T14:13:13.646Z,37.08
2023-07-07T14:15:15.675Z,36.97
2023-07-07T14:17:22.004Z,36.79
2023-07-07T14:19:33.370Z,36.55
2023-07-07T14:21:35.704Z,36.45
2023-07-07T14:23:42.393Z,36.28
2023-07-07T14:25:48.815Z,36.19
2023-07-07T14:27:55.693Z,35.98
2023-07-07T14:29:58.516Z,35.80
2023-07-07T14:32:02.957Z,35.69
2023-07-07T14:34:05.074Z,35.47
2023-07-07T14:36:19.539Z,35.29
2023-07-07T14:38:30.266Z,35.02
2023-07-07T14:40:34.878Z,34.83
2023-07-07T14:42:36.772Z,34.72
2023-07-07T14:44:40.475Z,34.60
2023-07-07T14:46:42.322Z,34.48
2023-07-07T14:48:49.373Z,34.38
2023-07-07T14:50:52.809Z,34.25
2023-07-07T14:52:57.523Z,34.21
2023-07-07T14:55:01.285Z,34.18
2023-07-07T14:57:06.183Z,34.17
2023-07-07T14:59:18.342Z,34.14
2023-07-07T15:01:23.576Z,34.02
2023-07-07T15:03:33.173Z,33.92
2023-07-07T15:05:35.160Z,33.87
2023-07-07T15:07:36.974Z,33.79
2023-07-07T15:09:43.060Z,33.77
2023-07-07T15:11:45.995Z,33.71
2023-07-07T15:13:48.017Z,33.67
2023-07-07T15:15:53.742Z,33.57
2023-07-07T15:17:55.625Z,33.43
2023-07-07T15:19:57.537Z,33.34
2023-07-07T15:21:59.265Z,33.28
2023-07-07T15:24:00.976Z,33.24
2023-07-07T15:26:04.687Z,33.23
2023-07-07T15:28:11.831Z,33.19
2023-07-07T15:30:15.812Z,33.17
2023-07-07T15:32:20.205Z,33.15
2023-07-07T15:34:22.512Z,33.16
2023-07-07T15:36:29.093Z,33.14
2023-07-07T15:38:55.821Z,33.14
2023-07-07T15:40:57.572Z,33.11
2023-07-07T15:43:00.615Z,33.11
2023-07-07T15:45:02.410Z,33.05
2023-07-07T15:47:05.027Z,33.04
2023-07-07T15:49:13.445Z,33.02
2023-07-07T15:51:25.103Z,33.01
2023-07-07T15:53:26.827Z,32.96
2023-07-07T15:55:28.560Z,32.94
2023-07-07T15:57:30.345Z,32.89
2023-07-07T15:59:33.686Z,32.84
2023-07-07T16:01:35.442Z,32.85
2023-07-07T16:03:37.227Z,32.78
2023-07-07T16:05:39.313Z,32.63
2023-07-07T16:07:41.186Z,32.68
2023-07-07T16:09:43.068Z,32.68
2023-07-07T16:11:45.911Z,32.64
2023-07-07T16:13:52.006Z,32.61
2023-07-07T16:15:58.569Z,32.52
2023-07-07T16:18:00.467Z,32.53
2023-07-07T16:20:13.240Z,32.55
2023-07-07T16:22:16.846Z,32.52
2023-07-07T16:24:21.343Z,32.55
2023-07-07T16:26:28.469Z,32.55
2023-07-07T16:28:30.254Z,32.52
2023-07-07T16:30:40.076Z,32.49
2023-07-07T16:32:43.246Z,32.50
2023-07-07T16:34:45.075Z,32.52
2023-07-07T16:36:46.782Z,32.53
2023-07-07T16:38:50.030Z,32.49
2023-07-07T16:40:52.678Z,32.48
2023-07-07T16:42:54.385Z,32.46
2023-07-07T16:44:56.233Z,32.47
2023-07-07T16:46:57.978Z,32.46
2023-07-07T16:49:01.078Z,32.49
2023-07-07T16:51:05.346Z,32.48
2023-07-07T16:53:07.063Z,32.48
2023-07-07T16:55:11.593Z,32.45
2023-07-07T16:57:18.669Z,32.46
2023-07-07T16:59:20.374Z,32.45
2023-07-07T17:01:24.588Z,32.44
2023-07-07T17:03:26.384Z,32.42
2023-07-07T17:05:29.456Z,32.39
2023-07-07T17:07:31.144Z,32.36
2023-07-07T17:09:32.859Z,32.34
2023-07-07T17:11:34.499Z,32.33
2023-07-07T17:13:36.469Z,32.34
2023-07-07T17:15:38.152Z,32.33
2023-07-07T17:17:39.924Z,32.29
2023-07-07T17:19:41.747Z,32.34
2023-07-07T17:21:44.796Z,32.36
2023-07-07T17:23:50.269Z,32.34
2023-07-07T17:25:51.941Z,32.27
2023-07-07T17:27:56.300Z,32.19
2023-07-07T17:29:58.009Z,32.13
2023-07-07T17:31:59.641Z,32.14
2023-07-07T17:34:01.296Z,32.07
2023-07-07T17:36:19.757Z,32.07
2023-07-07T17:38:25.017Z,32.05
2023-07-07T17:40:36.633Z,31.95
2023-07-07T17:42:38.340Z,31.93
2023-07-07T17:44:40.033Z,31.89
2023-07-07T17:46:41.850Z,31.90
2023-07-07T17:48:43.492Z,31.93
2023-07-07T17:50:49.337Z,31.92
2023-07-07T17:52:51.466Z,31.94
2023-07-07T17:54:54.604Z,31.96
2023-07-07T17:56:56.224Z,31.97
2023-07-07T17:58:58.817Z,31.97
2023-07-07T18:01:00.707Z,31.95
2023-07-07T18:03:04.733Z,31.93
2023-07-07T18:05:07.191Z,31.90
2023-07-07T18:07:09.212Z,31.89
2023-07-07T18:09:13.707Z,31.89
2023-07-07T18:11:18.707Z,31.86
2023-07-07T18:13:20.361Z,31.85
2023-07-07T18:15:25.165Z,31.85
2023-07-07T18:17:37.689Z,31.85
2023-07-07T18:20:50.178Z,31.82
2023-07-07T18:22:11.518Z,31.80
2023-07-07T18:24:13.707Z,31.81
2023-07-07T18:26:30.874Z,31.82
2023-07-07T18:28:35.265Z,31.83
2023-07-07T18:30:41.559Z,31.82
2023-07-07T18:32:43.433Z,31.76
2023-07-07T18:34:45.067Z,31.75
2023-07-07T18:36:49.539Z,31.74
2023-07-07T18:38:51.686Z,31.71
2023-07-07T18:40:56.296Z,31.67
2023-07-07T18:42:59.599Z,31.66
2023-07-07T18:45:01.262Z,31.64
2023-07-07T18:47:03.190Z,31.62
2023-07-07T18:49:08.842Z,31.62
2023-07-07T18:51:17.298Z,31.62
2023-07-07T18:53:19.248Z,31.59
2023-07-07T18:55:20.911Z,31.59
2023-07-07T18:57:22.516Z,31.58
2023-07-07T18:59:28.659Z,31.54
2023-07-07T19:01:30.401Z,31.52
2023-07-07T19:03:32.275Z,31.49
2023-07-07T19:05:34.270Z,31.50
2023-07-07T19:07:38.369Z,31.48
2023-07-07T19:09:40.202Z,31.42
2023-07-07T19:11:42.304Z,31.39
2023-07-07T19:13:44.173Z,31.35
2023-07-07T19:15:49.919Z,31.33
2023-07-07T19:17:51.691Z,31.29
2023-07-07T19:19:53.352Z,31.28
2023-07-07T19:21:55.148Z,31.23
2023-07-07T19:23:58.217Z,31.21
2023-07-07T19:26:00.443Z,31.18
2023-07-07T19:28:02.296Z,31.13
2023-07-07T19:30:13.482Z,31.12
2023-07-07T19:32:16.895Z,31.09
2023-07-07T19:34:18.710Z,31.05
2023-07-07T19:36:23.241Z,31.00
2023-07-07T19:38:26.594Z,30.93
2023-07-07T19:40:32.242Z,30.88
2023-07-07T19:42:33.866Z,30.83
2023-07-07T19:44:35.461Z,30.80
2023-07-07T19:46:37.829Z,30.76
2023-07-07T19:48:41.070Z,30.72
2023-07-07T19:50:44.729Z,30.71
2023-07-07T19:52:46.463Z,30.69
2023-07-07T19:54:48.576Z,30.67
2023-07-07T19:56:50.508Z,30.61
2023-07-07T19:58:53.718Z,30.57
2023-07-07T20:00:55.352Z,30.47
2023-07-07T20:02:57.002Z,30.41
2023-07-07T20:05:00.689Z,30.38
2023-07-07T20:07:02.435Z,30.29
2023-07-07T20:09:06.715Z,30.28
2023-07-07T20:11:13.446Z,30.30
2023-07-07T20:13:15.077Z,30.26
2023-07-07T20:15:18.004Z,30.22
2023-07-07T20:17:19.848Z,30.19
2023-07-07T20:19:23.097Z,30.13
2023-07-07T20:21:27.130Z,30.12
2023-07-07T20:23:29.005Z,30.14
2023-07-07T20:25:30.766Z,30.13
2023-07-07T20:27:32.668Z,30.10
2023-07-07T20:29:34.644Z,30.05
2023-07-07T20:31:36.581Z,30.00
2023-07-07T20:33:38.215Z,30.03
2023-07-07T20:35:40.778Z,29.98
2023-07-07T20:37:43.753Z,29.87
2023-07-07T20:39:45.466Z,29.84
2023-07-07T20:41:48.843Z,29.85
2023-07-07T20:43:50.565Z,29.84
2023-07-07T20:45:52.307Z,29.81
2023-07-07T20:47:54.185Z,29.80
2023-07-07T20:49:55.877Z,29.77
2023-07-07T20:51:57.610Z,29.71
2023-07-07T20:54:00.698Z,29.64
2023-07-07T20:56:09.068Z,29.59
2023-07-07T20:58:11.449Z,29.61
2023-07-07T21:00:18.413Z,29.48
2023-07-07T21:02:20.196Z,29.51
2023-07-07T21:04:21.987Z,29.56
2023-07-07T21:06:24.006Z,29.58
2023-07-07T21:08:25.728Z,29.49
2023-07-07T21:10:32.626Z,29.44
2023-07-07T21:12:34.321Z,29.24
2023-07-07T21:14:36.468Z,29.27
2023-07-07T21:16:43.004Z,29.29
2023-07-07T21:18:44.749Z,29.28
2023-07-07T21:20:47.116Z,29.16
2023-07-07T21:22:48.716Z,29.27
2023-07-07T21:24:50.365Z,29.21
2023-07-07T21:26:53.665Z,29.22
2023-07-07T21:28:56.042Z,29.17
2023-07-07T21:30:57.850Z,29.17
2023-07-07T21:32:59.702Z,29.15
2023-07-07T21:35:01.525Z,29.10
2023-07-07T21:37:03.234Z,28.94
2023-07-07T21:39:17.694Z,28.94
2023-07-07T21:41:22.073Z,28.97
2023-07-07T21:43:26.933Z,28.92
2023-07-07T21:45:28.711Z,28.82
2023-07-07T21:47:30.356Z,28.78
2023-07-07T21:49:32.290Z,28.76
2023-07-07T21:51:33.927Z,28.72
2023-07-07T21:53:35.584Z,28.70
2023-07-07T21:55:37.814Z,28.71
2023-07-07T21:57:48.729Z,28.69
2023-07-07T21:59:51.848Z,28.68
2023-07-07T22:01:57.913Z,28.72
2023-07-07T22:03:59.666Z,28.74
2023-07-07T22:06:01.673Z,28.75
2023-07-07T22:08:03.366Z,28.77
2023-07-07T22:10:27.005Z,28.77
2023-07-07T22:12:28.626Z,28.81
2023-07-07T22:14:30.304Z,28.77
2023-07-07T22:16:33.576Z,28.69
2023-07-07T22:18:42.175Z,28.66
2023-07-07T22:20:58.762Z,28.66
2023-07-07T22:23:01.858Z,28.68
2023-07-07T22:25:03.858Z,28.69
2023-07-07T22:27:05.653Z,28.68
2023-07-07T22:29:11.756Z,28.70
2023-07-07T22:31:14.874Z,28.68
2023-07-07T22:33:18.130Z,28.70
2023-07-07T22:35:20.173Z,28.76
2023-07-07T22:37:21.774Z,28.73
2023-07-07T22:39:23.599Z,28.77
2023-07-07T22:41:27.213Z,28.72
2023-07-07T22:43:28.834Z,28.72
2023-07-07T22:45:30.459Z,28.73
2023-07-07T22:47:32.173Z,28.75
2023-07-07T22:49:35.230Z,28.77
2023-07-07T22:51:36.957Z,28.76
2023-07-07T22:53:38.600Z,28.78
2023-07-07T22:55:42.167Z,28.81
2023-07-07T22:57:44.457Z,28.78
2023-07-07T22:59:46.056Z,28.81
2023-07-07T23:01:47.709Z,28.85
2023-07-07T23:03:51.449Z,28.85
2023-07-07T23:05:54.566Z,28.87
2023-07-07T23:07:56.267Z,28.89
2023-07-07T23:09:59.604Z,28.90
2023-07-07T23:12:01.430Z,28.93
2023-07-07T23:14:03.077Z,28.94
2023-07-07T23:16:11.056Z,28.98
2023-07-07T23:18:14.311Z,28.99
2023-07-07T23:20:18.713Z,28.97
2023-07-07T23:22:23.870Z,28.99
2023-07-07T23:24:25.576Z,28.97
2023-07-07T23:26:27.174Z,29.00
2023-07-07T23:28:29.408Z,28.99
2023-07-07T23:30:33.256Z,29.01
2023-07-07T23:32:35.007Z,29.01
2023-07-07T23:34:36.665Z,29.02
2023-07-07T23:36:38.324Z,29.03
2023-07-07T23:38:41.322Z,29.04
2023-07-07T23:40:43.625Z,29.07
2023-07-07T23:42:45.356Z,29.12
2023-07-07T23:44:47.040Z,29.15
2023-07-07T23:46:48.827Z,29.17
2023-07-07T23:48:50.548Z,29.16
2023-07-07T23:50:55.259Z,29.16
2023-07-07T23:52:57.170Z,29.10
2023-07-07T23:55:00.119Z,29.09
2023-07-07T23:57:02.003Z,29.04
2023-07-07T23:59:09.149Z,28.97
